sensor_id;sensor_type;location;lat;lon;timestamp;P1;durP1;ratioP1;P2;durP2;ratioP2
50591;SDS011;36548;50.506;30.834;2022-09-30T00:01:09;5.70;;;5.20;;
50591;SDS011;36548;50.506;30.834;2022-09-30T00:03:34;7.78;;;6.17;;
50591;SDS011;36548;50.506;30.834;2022-09-30T00:04:47;7.30;;;6.60;;
50591;SDS011;36548;50.506;30.834;2022-09-30T00:05:57;7.60;;;6.90;;
50591;SDS011;36548;50.506;30.834;2022-09-30T00:07:09;7.37;;;6.67;;
50591;SDS011;36548;50.506;30.834;2022-09-30T00:08:25;7.53;;;6.68;;
50591;SDS011;36548;50.506;30.834;2022-09-30T00:09:35;5.97;;;5.47;;
50591;SDS011;36548;50.506;30.834;2022-09-30T00:11:01;5.40;;;4.90;;
50591;SDS011;36548;50.506;30.834;2022-09-30T00:12:12;5.13;;;4.60;;
50591;SDS011;36548;50.506;30.834;2022-09-30T00:13:22;6.78;;;5.42;;
50591;SDS011;36548;50.506;30.834;2022-09-30T00:14:30;5.32;;;4.18;;
50591;SDS011;36548;50.506;30.834;2022-09-30T00:15:45;5.62;;;5.08;;
50591;SDS011;36548;50.506;30.834;2022-09-30T00:16:55;5.20;;;4.33;;
50591;SDS011;36548;50.506;30.834;2022-09-30T00:18:11;4.63;;;4.22;;
50591;SDS011;36548;50.506;30.834;2022-09-30T00:19:19;6.88;;;4.42;;
50591;SDS011;36548;50.506;30.834;2022-09-30T00:20:34;4.93;;;4.53;;
50591;SDS011;36548;50.506;30.834;2022-09-30T00:21:45;7.53;;;4.47;;
50591;SDS011;36548;50.506;30.834;2022-09-30T00:23:01;5.32;;;4.67;;
50591;SDS011;36548;50.506;30.834;2022-09-30T00:24:10;5.62;;;4.73;;
50591;SDS011;36548;50.506;30.834;2022-09-30T00:25:27;5.22;;;4.63;;
50591;SDS011;36548;50.506;30.834;2022-09-30T00:26:37;6.00;;;5.45;;
50591;SDS011;36548;50.506;30.834;2022-09-30T00:27:47;6.00;;;5.44;;
50591;SDS011;36548;50.506;30.834;2022-09-30T00:29:02;6.35;;;5.75;;
50591;SDS011;36548;50.506;30.834;2022-09-30T00:31:21;6.17;;;5.55;;
50591;SDS011;36548;50.506;30.834;2022-09-30T00:32:37;6.13;;;5.43;;
50591;SDS011;36548;50.506;30.834;2022-09-30T00:33:46;7.17;;;6.20;;
50591;SDS011;36548;50.506;30.834;2022-09-30T00:35:20;6.28;;;5.62;;
50591;SDS011;36548;50.506;30.834;2022-09-30T00:36:30;6.55;;;5.90;;
50591;SDS011;36548;50.506;30.834;2022-09-30T00:37:52;7.22;;;6.62;;
50591;SDS011;36548;50.506;30.834;2022-09-30T00:39:20;7.10;;;6.18;;
50591;SDS011;36548;50.506;30.834;2022-09-30T00:40:32;6.55;;;5.87;;
50591;SDS011;36548;50.506;30.834;2022-09-30T00:41:41;5.40;;;4.87;;
50591;SDS011;36548;50.506;30.834;2022-09-30T00:42:56;5.15;;;4.23;;
50591;SDS011;36548;50.506;30.834;2022-09-30T00:45:59;5.03;;;3.70;;
50591;SDS011;36548;50.506;30.834;2022-09-30T00:48:35;4.02;;;3.42;;
50591;SDS011;36548;50.506;30.834;2022-09-30T00:49:47;3.67;;;3.35;;
50591;SDS011;36548;50.506;30.834;2022-09-30T00:51:03;3.43;;;3.00;;
50591;SDS011;36548;50.506;30.834;2022-09-30T00:52:16;4.35;;;3.33;;
50591;SDS011;36548;50.506;30.834;2022-09-30T00:53:35;5.20;;;3.43;;
50591;SDS011;36548;50.506;30.834;2022-09-30T00:54:46;4.77;;;3.27;;
50591;SDS011;36548;50.506;30.834;2022-09-30T00:57:17;4.52;;;3.28;;
50591;SDS011;36548;50.506;30.834;2022-09-30T00:58:38;5.95;;;4.07;;
50591;SDS011;36548;50.506;30.834;2022-09-30T00:59:55;3.20;;;2.90;;
50591;SDS011;36548;50.506;30.834;2022-09-30T01:01:05;4.40;;;3.05;;
50591;SDS011;36548;50.506;30.834;2022-09-30T01:02:23;5.18;;;3.12;;
50591;SDS011;36548;50.506;30.834;2022-09-30T01:03:32;3.93;;;3.15;;
50591;SDS011;36548;50.506;30.834;2022-09-30T01:04:50;4.45;;;3.85;;
50591;SDS011;36548;50.506;30.834;2022-09-30T01:06:01;4.22;;;3.78;;
50591;SDS011;36548;50.506;30.834;2022-09-30T01:07:19;3.93;;;3.52;;
50591;SDS011;36548;50.506;30.834;2022-09-30T01:08:31;4.10;;;3.72;;
50591;SDS011;36548;50.506;30.834;2022-09-30T01:09:50;5.10;;;4.13;;
50591;SDS011;36548;50.506;30.834;2022-09-30T01:11:01;4.37;;;3.95;;
50591;SDS011;36548;50.506;30.834;2022-09-30T01:12:18;5.88;;;4.12;;
50591;SDS011;36548;50.506;30.834;2022-09-30T01:13:30;6.23;;;5.07;;
50591;SDS011;36548;50.506;30.834;2022-09-30T01:14:48;7.45;;;4.90;;
50591;SDS011;36548;50.506;30.834;2022-09-30T01:28:56;3.45;;;2.60;;
50591;SDS011;36548;50.506;30.834;2022-09-30T01:30:09;3.72;;;2.97;;
50591;SDS011;36548;50.506;30.834;2022-09-30T01:31:31;3.38;;;2.43;;
50591;SDS011;36548;50.506;30.834;2022-09-30T01:34:41;2.77;;;2.32;;
50591;SDS011;36548;50.506;30.834;2022-09-30T01:37:31;6.85;;;2.90;;
50591;SDS011;36548;50.506;30.834;2022-09-30T01:38:47;4.15;;;3.02;;
50591;SDS011;36548;50.506;30.834;2022-09-30T01:40:12;3.93;;;3.43;;
50591;SDS011;36548;50.506;30.834;2022-09-30T01:41:34;4.32;;;3.92;;
50591;SDS011;36548;50.506;30.834;2022-09-30T01:43:06;4.42;;;4.02;;
50591;SDS011;36548;50.506;30.834;2022-09-30T01:44:23;4.75;;;3.85;;
50591;SDS011;36548;50.506;30.834;2022-09-30T01:45:57;9.18;;;4.13;;
50591;SDS011;36548;50.506;30.834;2022-09-30T01:47:26;5.10;;;4.20;;
50591;SDS011;36548;50.506;30.834;2022-09-30T01:48:45;5.42;;;4.05;;
50591;SDS011;36548;50.506;30.834;2022-09-30T01:50:11;5.98;;;4.68;;
50591;SDS011;36548;50.506;30.834;2022-09-30T01:51:35;3.72;;;3.20;;
50591;SDS011;36548;50.506;30.834;2022-09-30T01:54:36;3.28;;;2.58;;
50591;SDS011;36548;50.506;30.834;2022-09-30T01:55:59;4.95;;;2.70;;
50591;SDS011;36548;50.506;30.834;2022-09-30T01:57:32;3.62;;;3.08;;
50591;SDS011;36548;50.506;30.834;2022-09-30T02:00:04;2.58;;;2.10;;
50591;SDS011;36548;50.506;30.834;2022-09-30T02:01:30;4.85;;;2.70;;
50591;SDS011;36548;50.506;30.834;2022-09-30T02:04:06;5.18;;;3.27;;
50591;SDS011;36548;50.506;30.834;2022-09-30T02:05:27;6.85;;;2.65;;
50591;SDS011;36548;50.506;30.834;2022-09-30T02:06:41;2.96;;;2.36;;
50591;SDS011;36548;50.506;30.834;2022-09-30T02:08:00;3.03;;;2.23;;
50591;SDS011;36548;50.506;30.834;2022-09-30T02:09:21;3.02;;;2.47;;
50591;SDS011;36548;50.506;30.834;2022-09-30T02:10:44;3.28;;;2.88;;
50591;SDS011;36548;50.506;30.834;2022-09-30T02:11:52;3.05;;;2.70;;
50591;SDS011;36548;50.506;30.834;2022-09-30T02:14:28;3.20;;;2.47;;
50591;SDS011;36548;50.506;30.834;2022-09-30T02:15:47;3.80;;;2.73;;
50591;SDS011;36548;50.506;30.834;2022-09-30T02:17:03;3.95;;;3.37;;
50591;SDS011;36548;50.506;30.834;2022-09-30T02:18:41;4.40;;;2.90;;
50591;SDS011;36548;50.506;30.834;2022-09-30T02:20:04;4.37;;;2.72;;
50591;SDS011;36548;50.506;30.834;2022-09-30T02:21:14;3.70;;;2.60;;
50591;SDS011;36548;50.506;30.834;2022-09-30T02:22:33;3.47;;;3.17;;
50591;SDS011;36548;50.506;30.834;2022-09-30T02:24:01;4.50;;;3.35;;
50591;SDS011;36548;50.506;30.834;2022-09-30T02:25:18;4.20;;;3.68;;
50591;SDS011;36548;50.506;30.834;2022-09-30T02:27:59;5.38;;;4.30;;
50591;SDS011;36548;50.506;30.834;2022-09-30T02:29:14;5.05;;;4.45;;
50591;SDS011;36548;50.506;30.834;2022-09-30T02:30:35;6.35;;;5.70;;
50591;SDS011;36548;50.506;30.834;2022-09-30T02:31:47;4.07;;;3.68;;
50591;SDS011;36548;50.506;30.834;2022-09-30T02:33:06;4.43;;;3.28;;
50591;SDS011;36548;50.506;30.834;2022-09-30T02:35:42;4.30;;;3.25;;
50591;SDS011;36548;50.506;30.834;2022-09-30T02:36:56;5.42;;;3.90;;
50591;SDS011;36548;50.506;30.834;2022-09-30T02:38:18;3.23;;;2.93;;
50591;SDS011;36548;50.506;30.834;2022-09-30T02:39:47;3.73;;;3.37;;
50591;SDS011;36548;50.506;30.834;2022-09-30T02:41:01;3.78;;;2.85;;
50591;SDS011;36548;50.506;30.834;2022-09-30T02:42:21;4.85;;;3.50;;
50591;SDS011;36548;50.506;30.834;2022-09-30T02:43:36;3.68;;;3.03;;
50591;SDS011;36548;50.506;30.834;2022-09-30T02:45:18;4.43;;;3.23;;
50591;SDS011;36548;50.506;30.834;2022-09-30T02:46:40;4.55;;;3.30;;
50591;SDS011;36548;50.506;30.834;2022-09-30T02:48:17;3.73;;;2.88;;
50591;SDS011;36548;50.506;30.834;2022-09-30T02:49:46;3.62;;;3.30;;
50591;SDS011;36548;50.506;30.834;2022-09-30T02:52:46;3.50;;;3.05;;
50591;SDS011;36548;50.506;30.834;2022-09-30T02:55:18;5.58;;;3.53;;
50591;SDS011;36548;50.506;30.834;2022-09-30T02:59:23;5.30;;;4.20;;
50591;SDS011;36548;50.506;30.834;2022-09-30T03:00:34;5.25;;;4.08;;
50591;SDS011;36548;50.506;30.834;2022-09-30T03:01:49;5.83;;;4.13;;
50591;SDS011;36548;50.506;30.834;2022-09-30T03:03:01;5.23;;;4.30;;
50591;SDS011;36548;50.506;30.834;2022-09-30T03:04:20;5.13;;;4.63;;
50591;SDS011;36548;50.506;30.834;2022-09-30T03:05:31;6.58;;;4.87;;
50591;SDS011;36548;50.506;30.834;2022-09-30T03:06:42;5.10;;;4.50;;
50591;SDS011;36548;50.506;30.834;2022-09-30T03:07:58;6.25;;;4.20;;
50591;SDS011;36548;50.506;30.834;2022-09-30T03:10:23;4.40;;;4.00;;
50591;SDS011;36548;50.506;30.834;2022-09-30T03:11:32;5.25;;;3.93;;
50591;SDS011;36548;50.506;30.834;2022-09-30T03:16:01;5.55;;;3.58;;
50591;SDS011;36548;50.506;30.834;2022-09-30T03:18:52;4.00;;;3.10;;
50591;SDS011;36548;50.506;30.834;2022-09-30T03:24:52;4.62;;;3.92;;
50591;SDS011;36548;50.506;30.834;2022-09-30T03:28:09;5.10;;;4.60;;
50591;SDS011;36548;50.506;30.834;2022-09-30T03:36:04;7.03;;;6.20;;
50591;SDS011;36548;50.506;30.834;2022-09-30T03:37:25;6.73;;;6.02;;
50591;SDS011;36548;50.506;30.834;2022-09-30T03:38:47;7.30;;;6.22;;
50591;SDS011;36548;50.506;30.834;2022-09-30T03:42:51;4.83;;;4.43;;
50591;SDS011;36548;50.506;30.834;2022-09-30T03:45:48;6.10;;;4.30;;
50591;SDS011;36548;50.506;30.834;2022-09-30T03:47:06;4.63;;;3.82;;
50591;SDS011;36548;50.506;30.834;2022-09-30T03:48:17;5.62;;;4.00;;
50591;SDS011;36548;50.506;30.834;2022-09-30T03:49:36;5.13;;;4.37;;
50591;SDS011;36548;50.506;30.834;2022-09-30T03:50:54;3.98;;;3.52;;
50591;SDS011;36548;50.506;30.834;2022-09-30T03:52:08;6.82;;;4.18;;
50591;SDS011;36548;50.506;30.834;2022-09-30T03:53:25;6.08;;;3.82;;
50591;SDS011;36548;50.506;30.834;2022-09-30T03:56:03;4.52;;;3.62;;
50591;SDS011;36548;50.506;30.834;2022-09-30T03:57:12;4.95;;;4.00;;
50591;SDS011;36548;50.506;30.834;2022-09-30T03:58:24;5.75;;;4.63;;
50591;SDS011;36548;50.506;30.834;2022-09-30T03:59:39;4.87;;;3.72;;
50591;SDS011;36548;50.506;30.834;2022-09-30T04:00:49;4.98;;;3.83;;
50591;SDS011;36548;50.506;30.834;2022-09-30T04:02:00;4.53;;;4.12;;
50591;SDS011;36548;50.506;30.834;2022-09-30T04:03:19;5.65;;;4.10;;
50591;SDS011;36548;50.506;30.834;2022-09-30T04:04:30;4.60;;;4.02;;
50591;SDS011;36548;50.506;30.834;2022-09-30T04:05:45;4.97;;;4.18;;
50591;SDS011;36548;50.506;30.834;2022-09-30T04:06:54;6.25;;;4.50;;
50591;SDS011;36548;50.506;30.834;2022-09-30T04:08:10;5.17;;;4.60;;
50591;SDS011;36548;50.506;30.834;2022-09-30T04:09:20;5.65;;;5.15;;
50591;SDS011;36548;50.506;30.834;2022-09-30T04:10:34;7.52;;;5.68;;
50591;SDS011;36548;50.506;30.834;2022-09-30T04:11:44;6.38;;;5.73;;
50591;SDS011;36548;50.506;30.834;2022-09-30T04:12:59;6.43;;;5.80;;
50591;SDS011;36548;50.506;30.834;2022-09-30T04:14:08;7.82;;;5.68;;
50591;SDS011;36548;50.506;30.834;2022-09-30T04:15:23;8.13;;;5.72;;
50591;SDS011;36548;50.506;30.834;2022-09-30T04:16:33;6.60;;;5.80;;
50591;SDS011;36548;50.506;30.834;2022-09-30T04:17:49;7.58;;;6.85;;
50591;SDS011;36548;50.506;30.834;2022-09-30T04:18:58;6.30;;;5.28;;
50591;SDS011;36548;50.506;30.834;2022-09-30T04:20:14;13.15;;;11.80;;
50591;SDS011;36548;50.506;30.834;2022-09-30T04:21:25;10.95;;;9.67;;
50591;SDS011;36548;50.506;30.834;2022-09-30T04:22:44;6.75;;;6.05;;
50591;SDS011;36548;50.506;30.834;2022-09-30T04:23:53;5.95;;;4.95;;
50591;SDS011;36548;50.506;30.834;2022-09-30T04:25:10;5.63;;;4.63;;
50591;SDS011;36548;50.506;30.834;2022-09-30T04:26:21;7.00;;;4.60;;
50591;SDS011;36548;50.506;30.834;2022-09-30T04:27:36;6.23;;;5.45;;
50591;SDS011;36548;50.506;30.834;2022-09-30T04:28:46;7.30;;;5.73;;
50591;SDS011;36548;50.506;30.834;2022-09-30T04:30:02;6.07;;;5.47;;
50591;SDS011;36548;50.506;30.834;2022-09-30T04:31:13;8.20;;;6.60;;
50591;SDS011;36548;50.506;30.834;2022-09-30T04:32:51;7.37;;;6.62;;
50591;SDS011;36548;50.506;30.834;2022-09-30T04:34:01;7.58;;;6.40;;
50591;SDS011;36548;50.506;30.834;2022-09-30T04:35:17;7.05;;;6.33;;
50591;SDS011;36548;50.506;30.834;2022-09-30T04:36:26;9.15;;;6.80;;
50591;SDS011;36548;50.506;30.834;2022-09-30T04:37:39;7.70;;;6.95;;
50591;SDS011;36548;50.506;30.834;2022-09-30T04:38:51;8.03;;;7.23;;
50591;SDS011;36548;50.506;30.834;2022-09-30T04:40:07;8.57;;;7.68;;
50591;SDS011;36548;50.506;30.834;2022-09-30T04:42:32;5.83;;;4.97;;
50591;SDS011;36548;50.506;30.834;2022-09-30T04:43:41;5.73;;;5.22;;
50591;SDS011;36548;50.506;30.834;2022-09-30T04:44:55;11.27;;;5.30;;
50591;SDS011;36548;50.506;30.834;2022-09-30T04:46:12;8.42;;;5.40;;
50591;SDS011;36548;50.506;30.834;2022-09-30T04:47:22;7.28;;;4.98;;
50591;SDS011;36548;50.506;30.834;2022-09-30T04:48:40;5.25;;;4.43;;
50591;SDS011;36548;50.506;30.834;2022-09-30T04:49:51;6.60;;;5.20;;
50591;SDS011;36548;50.506;30.834;2022-09-30T04:51:06;6.00;;;5.40;;
50591;SDS011;36548;50.506;30.834;2022-09-30T04:52:17;5.83;;;5.10;;
50591;SDS011;36548;50.506;30.834;2022-09-30T04:53:25;5.20;;;4.32;;
50591;SDS011;36548;50.506;30.834;2022-09-30T04:54:42;6.10;;;4.50;;
50591;SDS011;36548;50.506;30.834;2022-09-30T04:55:57;5.30;;;4.75;;
50591;SDS011;36548;50.506;30.834;2022-09-30T04:57:09;6.70;;;5.40;;
50591;SDS011;36548;50.506;30.834;2022-09-30T04:58:23;6.37;;;4.40;;
50591;SDS011;36548;50.506;30.834;2022-09-30T04:59:34;6.10;;;5.30;;
50591;SDS011;36548;50.506;30.834;2022-09-30T05:00:59;6.68;;;5.85;;
50591;SDS011;36548;50.506;30.834;2022-09-30T05:02:10;8.73;;;6.78;;
50591;SDS011;36548;50.506;30.834;2022-09-30T05:03:28;9.18;;;7.23;;
50591;SDS011;36548;50.506;30.834;2022-09-30T05:04:37;9.45;;;7.42;;
50591;SDS011;36548;50.506;30.834;2022-09-30T05:05:47;9.03;;;7.73;;
50591;SDS011;36548;50.506;30.834;2022-09-30T05:07:03;7.58;;;6.83;;
50591;SDS011;36548;50.506;30.834;2022-09-30T05:08:15;9.75;;;8.70;;
50591;SDS011;36548;50.506;30.834;2022-09-30T05:09:25;9.80;;;8.85;;
50591;SDS011;36548;50.506;30.834;2022-09-30T05:10:40;9.50;;;8.48;;
50591;SDS011;36548;50.506;30.834;2022-09-30T05:11:50;8.00;;;7.20;;
50591;SDS011;36548;50.506;30.834;2022-09-30T05:13:00;7.90;;;7.05;;
50591;SDS011;36548;50.506;30.834;2022-09-30T05:14:10;8.05;;;7.30;;
50591;SDS011;36548;50.506;30.834;2022-09-30T05:15:21;6.47;;;5.87;;
50591;SDS011;36548;50.506;30.834;2022-09-30T05:16:36;8.73;;;6.32;;
50591;SDS011;36548;50.506;30.834;2022-09-30T05:17:47;8.65;;;6.55;;
50591;SDS011;36548;50.506;30.834;2022-09-30T05:19:03;9.25;;;6.07;;
50591;SDS011;36548;50.506;30.834;2022-09-30T05:20:13;6.65;;;5.95;;
50591;SDS011;36548;50.506;30.834;2022-09-30T05:21:29;9.05;;;6.20;;
50591;SDS011;36548;50.506;30.834;2022-09-30T05:22:38;6.25;;;5.70;;
50591;SDS011;36548;50.506;30.834;2022-09-30T05:23:56;9.35;;;6.85;;
50591;SDS011;36548;50.506;30.834;2022-09-30T05:25:06;7.50;;;6.05;;
50591;SDS011;36548;50.506;30.834;2022-09-30T05:26:16;10.20;;;7.02;;
50591;SDS011;36548;50.506;30.834;2022-09-30T05:27:31;7.72;;;6.22;;
50591;SDS011;36548;50.506;30.834;2022-09-30T05:28:41;9.53;;;7.17;;
50591;SDS011;36548;50.506;30.834;2022-09-30T05:29:57;9.57;;;6.98;;
50591;SDS011;36548;50.506;30.834;2022-09-30T05:31:06;9.12;;;6.23;;
50591;SDS011;36548;50.506;30.834;2022-09-30T05:32:22;9.55;;;7.02;;
50591;SDS011;36548;50.506;30.834;2022-09-30T05:33:31;8.38;;;6.60;;
50591;SDS011;36548;50.506;30.834;2022-09-30T05:34:49;13.17;;;7.65;;
50591;SDS011;36548;50.506;30.834;2022-09-30T05:35:58;9.75;;;7.88;;
50591;SDS011;36548;50.506;30.834;2022-09-30T05:37:18;12.92;;;8.97;;
50591;SDS011;36548;50.506;30.834;2022-09-30T05:38:27;10.13;;;8.43;;
50591;SDS011;36548;50.506;30.834;2022-09-30T05:39:43;11.22;;;9.30;;
50591;SDS011;36548;50.506;30.834;2022-09-30T05:40:53;11.00;;;8.52;;
50591;SDS011;36548;50.506;30.834;2022-09-30T05:42:10;9.70;;;8.05;;
50591;SDS011;36548;50.506;30.834;2022-09-30T05:43:20;11.58;;;8.22;;
50591;SDS011;36548;50.506;30.834;2022-09-30T05:44:30;8.67;;;7.53;;
50591;SDS011;36548;50.506;30.834;2022-09-30T05:45:40;11.20;;;7.60;;
50591;SDS011;36548;50.506;30.834;2022-09-30T05:46:55;11.62;;;7.45;;
50591;SDS011;36548;50.506;30.834;2022-09-30T05:48:06;11.32;;;8.57;;
50591;SDS011;36548;50.506;30.834;2022-09-30T05:49:21;9.12;;;7.05;;
50591;SDS011;36548;50.506;30.834;2022-09-30T05:50:32;8.67;;;7.40;;
50591;SDS011;36548;50.506;30.834;2022-09-30T05:51:41;18.63;;;7.72;;
50591;SDS011;36548;50.506;30.834;2022-09-30T05:52:56;8.25;;;7.30;;
50591;SDS011;36548;50.506;30.834;2022-09-30T05:54:06;10.30;;;7.75;;
50591;SDS011;36548;50.506;30.834;2022-09-30T05:55:15;8.55;;;6.98;;
50591;SDS011;36548;50.506;30.834;2022-09-30T05:56:31;9.18;;;6.82;;
50591;SDS011;36548;50.506;30.834;2022-09-30T05:58:51;7.70;;;6.95;;
50591;SDS011;36548;50.506;30.834;2022-09-30T06:00:08;8.62;;;7.52;;
50591;SDS011;36548;50.506;30.834;2022-09-30T06:01:20;8.95;;;7.32;;
50591;SDS011;36548;50.506;30.834;2022-09-30T06:02:35;8.55;;;7.47;;
50591;SDS011;36548;50.506;30.834;2022-09-30T06:05:02;9.85;;;6.90;;
50591;SDS011;36548;50.506;30.834;2022-09-30T06:06:21;9.13;;;7.03;;
50591;SDS011;36548;50.506;30.834;2022-09-30T06:07:34;8.88;;;7.92;;
50591;SDS011;36548;50.506;30.834;2022-09-30T06:08:44;9.25;;;8.35;;
50591;SDS011;36548;50.506;30.834;2022-09-30T06:09:53;10.62;;;8.70;;
50591;SDS011;36548;50.506;30.834;2022-09-30T06:11:06;12.02;;;9.73;;
50591;SDS011;36548;50.506;30.834;2022-09-30T06:12:21;11.43;;;10.25;;
50591;SDS011;36548;50.506;30.834;2022-09-30T06:13:30;12.58;;;10.77;;
50591;SDS011;36548;50.506;30.834;2022-09-30T06:14:46;13.15;;;10.85;;
50591;SDS011;36548;50.506;30.834;2022-09-30T06:15:55;11.05;;;9.53;;
50591;SDS011;36548;50.506;30.834;2022-09-30T06:17:05;10.43;;;9.30;;
50591;SDS011;36548;50.506;30.834;2022-09-30T06:18:14;9.85;;;8.75;;
50591;SDS011;36548;50.506;30.834;2022-09-30T06:19:30;9.32;;;8.05;;
50591;SDS011;36548;50.506;30.834;2022-09-30T06:20:40;9.40;;;8.10;;
50591;SDS011;36548;50.506;30.834;2022-09-30T06:21:55;8.77;;;7.73;;
50591;SDS011;36548;50.506;30.834;2022-09-30T06:23:05;10.75;;;8.35;;
50591;SDS011;36548;50.506;30.834;2022-09-30T06:24:20;9.35;;;8.25;;
50591;SDS011;36548;50.506;30.834;2022-09-30T06:25:29;8.68;;;7.73;;
50591;SDS011;36548;50.506;30.834;2022-09-30T06:26:45;11.38;;;9.13;;
50591;SDS011;36548;50.506;30.834;2022-09-30T06:27:54;10.95;;;8.87;;
50591;SDS011;36548;50.506;30.834;2022-09-30T06:29:10;8.87;;;8.02;;
50591;SDS011;36548;50.506;30.834;2022-09-30T06:30:19;11.20;;;8.60;;
50591;SDS011;36548;50.506;30.834;2022-09-30T06:31:30;12.55;;;9.72;;
50591;SDS011;36548;50.506;30.834;2022-09-30T06:32:40;10.22;;;9.20;;
50591;SDS011;36548;50.506;30.834;2022-09-30T06:33:53;12.96;;;11.50;;
50591;SDS011;36548;50.506;30.834;2022-09-30T06:35:03;15.60;;;13.90;;
50591;SDS011;36548;50.506;30.834;2022-09-30T06:36:14;12.70;;;11.33;;
50591;SDS011;36548;50.506;30.834;2022-09-30T06:37:30;11.68;;;10.57;;
50591;SDS011;36548;50.506;30.834;2022-09-30T06:38:39;12.77;;;11.47;;
50591;SDS011;36548;50.506;30.834;2022-09-30T06:39:54;15.70;;;11.87;;
50591;SDS011;36548;50.506;30.834;2022-09-30T06:41:03;13.63;;;12.03;;
50591;SDS011;36548;50.506;30.834;2022-09-30T06:42:18;14.52;;;11.90;;
50591;SDS011;36548;50.506;30.834;2022-09-30T06:43:28;10.60;;;9.52;;
50591;SDS011;36548;50.506;30.834;2022-09-30T06:44:40;10.45;;;9.15;;
50591;SDS011;36548;50.506;30.834;2022-09-30T06:45:51;9.50;;;7.90;;
50591;SDS011;36548;50.506;30.834;2022-09-30T06:47:03;9.13;;;8.23;;
50591;SDS011;36548;50.506;30.834;2022-09-30T06:48:15;10.08;;;7.90;;
50591;SDS011;36548;50.506;30.834;2022-09-30T06:49:31;8.75;;;7.77;;
50591;SDS011;36548;50.506;30.834;2022-09-30T06:50:43;8.20;;;7.23;;
50591;SDS011;36548;50.506;30.834;2022-09-30T06:51:55;8.58;;;7.25;;
50591;SDS011;36548;50.506;30.834;2022-09-30T06:53:06;11.68;;;9.92;;
50591;SDS011;36548;50.506;30.834;2022-09-30T06:54:23;11.08;;;7.87;;
50591;SDS011;36548;50.506;30.834;2022-09-30T06:55:35;12.12;;;8.23;;
50591;SDS011;36548;50.506;30.834;2022-09-30T06:56:46;10.77;;;8.93;;
50591;SDS011;36548;50.506;30.834;2022-09-30T06:57:59;9.68;;;8.68;;
50591;SDS011;36548;50.506;30.834;2022-09-30T06:59:08;11.03;;;9.57;;
50591;SDS011;36548;50.506;30.834;2022-09-30T07:00:18;11.03;;;9.90;;
50591;SDS011;36548;50.506;30.834;2022-09-30T07:01:27;12.57;;;11.17;;
50591;SDS011;36548;50.506;30.834;2022-09-30T07:02:44;12.65;;;11.27;;
50591;SDS011;36548;50.506;30.834;2022-09-30T07:03:53;13.28;;;11.98;;
50591;SDS011;36548;50.506;30.834;2022-09-30T07:05:05;13.47;;;12.00;;
50591;SDS011;36548;50.506;30.834;2022-09-30T07:06:22;13.83;;;12.37;;
50591;SDS011;36548;50.506;30.834;2022-09-30T07:07:33;13.92;;;12.43;;
50591;SDS011;36548;50.506;30.834;2022-09-30T07:08:43;15.25;;;13.10;;
50591;SDS011;36548;50.506;30.834;2022-09-30T07:10:02;14.28;;;12.93;;
50591;SDS011;36548;50.506;30.834;2022-09-30T07:11:12;14.35;;;12.87;;
50591;SDS011;36548;50.506;30.834;2022-09-30T07:12:28;14.50;;;12.25;;
50591;SDS011;36548;50.506;30.834;2022-09-30T07:13:37;11.57;;;10.25;;
50591;SDS011;36548;50.506;30.834;2022-09-30T07:14:55;11.35;;;9.13;;
50591;SDS011;36548;50.506;30.834;2022-09-30T07:16:04;9.70;;;7.80;;
50591;SDS011;36548;50.506;30.834;2022-09-30T07:17:19;9.53;;;8.40;;
50591;SDS011;36548;50.506;30.834;2022-09-30T07:18:28;9.53;;;8.37;;
50591;SDS011;36548;50.506;30.834;2022-09-30T07:19:43;9.82;;;8.48;;
50591;SDS011;36548;50.506;30.834;2022-09-30T07:20:52;8.77;;;7.97;;
50591;SDS011;36548;50.506;30.834;2022-09-30T07:22:03;8.40;;;7.62;;
50591;SDS011;36548;50.506;30.834;2022-09-30T07:23:37;7.50;;;6.80;;
50591;SDS011;36548;50.506;30.834;2022-09-30T07:24:49;9.42;;;8.50;;
50591;SDS011;36548;50.506;30.834;2022-09-30T07:25:59;11.43;;;10.32;;
50591;SDS011;36548;50.506;30.834;2022-09-30T07:27:19;10.72;;;9.48;;
50591;SDS011;36548;50.506;30.834;2022-09-30T07:28:31;10.40;;;9.22;;
50591;SDS011;36548;50.506;30.834;2022-09-30T07:29:43;8.85;;;7.95;;
50591;SDS011;36548;50.506;30.834;2022-09-30T07:32:13;12.02;;;9.20;;
50591;SDS011;36548;50.506;30.834;2022-09-30T07:33:23;10.50;;;9.42;;
50591;SDS011;36548;50.506;30.834;2022-09-30T07:34:41;11.53;;;10.18;;
50591;SDS011;36548;50.506;30.834;2022-09-30T07:35:52;11.90;;;10.72;;
50591;SDS011;36548;50.506;30.834;2022-09-30T07:37:12;12.48;;;11.28;;
50591;SDS011;36548;50.506;30.834;2022-09-30T07:38:23;13.67;;;11.78;;
50591;SDS011;36548;50.506;30.834;2022-09-30T07:39:35;12.42;;;11.20;;
50591;SDS011;36548;50.506;30.834;2022-09-30T07:40:52;13.40;;;12.17;;
50591;SDS011;36548;50.506;30.834;2022-09-30T07:42:03;13.88;;;12.55;;
50591;SDS011;36548;50.506;30.834;2022-09-30T07:43:27;14.65;;;13.25;;
50591;SDS011;36548;50.506;30.834;2022-09-30T07:44:46;16.03;;;14.33;;
50591;SDS011;36548;50.506;30.834;2022-09-30T07:46:03;14.50;;;13.08;;
50591;SDS011;36548;50.506;30.834;2022-09-30T07:47:14;13.63;;;10.62;;
50591;SDS011;36548;50.506;30.834;2022-09-30T07:48:33;14.50;;;10.35;;
50591;SDS011;36548;50.506;30.834;2022-09-30T07:49:48;11.65;;;9.80;;
50591;SDS011;36548;50.506;30.834;2022-09-30T07:51:04;10.50;;;8.95;;
50591;SDS011;36548;50.506;30.834;2022-09-30T07:52:14;9.50;;;8.60;;
50591;SDS011;36548;50.506;30.834;2022-09-30T07:53:23;10.57;;;9.48;;
50591;SDS011;36548;50.506;30.834;2022-09-30T07:54:39;10.42;;;8.12;;
50591;SDS011;36548;50.506;30.834;2022-09-30T07:55:52;10.72;;;9.60;;
50591;SDS011;36548;50.506;30.834;2022-09-30T07:57:02;10.93;;;9.43;;
50591;SDS011;36548;50.506;30.834;2022-09-30T07:58:13;10.32;;;9.30;;
50591;SDS011;36548;50.506;30.834;2022-09-30T07:59:24;11.40;;;10.30;;
50591;SDS011;36548;50.506;30.834;2022-09-30T08:00:40;11.53;;;10.43;;
50591;SDS011;36548;50.506;30.834;2022-09-30T08:01:51;12.33;;;11.10;;
50591;SDS011;36548;50.506;30.834;2022-09-30T08:03:06;14.10;;;12.32;;
50591;SDS011;36548;50.506;30.834;2022-09-30T08:04:17;14.30;;;11.73;;
50591;SDS011;36548;50.506;30.834;2022-09-30T08:05:27;13.70;;;12.40;;
50591;SDS011;36548;50.506;30.834;2022-09-30T08:06:37;14.75;;;12.37;;
50591;SDS011;36548;50.506;30.834;2022-09-30T08:07:49;17.82;;;12.35;;
50591;SDS011;36548;50.506;30.834;2022-09-30T08:08:59;12.45;;;9.55;;
50591;SDS011;36548;50.506;30.834;2022-09-30T08:10:09;10.20;;;8.95;;
50591;SDS011;36548;50.506;30.834;2022-09-30T08:11:18;9.08;;;8.32;;
50591;SDS011;36548;50.506;30.834;2022-09-30T08:12:29;7.95;;;7.20;;
50591;SDS011;36548;50.506;30.834;2022-09-30T08:13:40;7.90;;;7.15;;
50591;SDS011;36548;50.506;30.834;2022-09-30T08:16:00;7.50;;;6.75;;
50591;SDS011;36548;50.506;30.834;2022-09-30T08:17:15;7.88;;;7.17;;
50591;SDS011;36548;50.506;30.834;2022-09-30T08:18:24;8.73;;;7.93;;
50591;SDS011;36548;50.506;30.834;2022-09-30T08:19:35;9.25;;;7.87;;
50591;SDS011;36548;50.506;30.834;2022-09-30T08:20:45;9.15;;;8.30;;
50591;SDS011;36548;50.506;30.834;2022-09-30T08:21:57;10.22;;;9.18;;
50591;SDS011;36548;50.506;30.834;2022-09-30T08:23:06;11.50;;;10.25;;
50591;SDS011;36548;50.506;30.834;2022-09-30T08:24:15;11.88;;;10.18;;
50591;SDS011;36548;50.506;30.834;2022-09-30T08:25:30;11.57;;;10.43;;
50591;SDS011;36548;50.506;30.834;2022-09-30T08:26:39;11.55;;;10.35;;
50591;SDS011;36548;50.506;30.834;2022-09-30T08:28:14;12.23;;;11.13;;